Time;durP1;ratioP1;P1;durP2;ratioP2;P2;SDS_P1;SDS_P2;PMS_P1;PMS_P2;Temp;Humidity;BMP_temperature;BMP_pressure;BME280_temperature;BME280_humidity;BME280_pressure;Samples;Min_cycle;Max_cycle;Signal;HPM_P1;HPM_P2
2021/05/14 00:00:49;;;;;;;1.58;1.45;;;14.00;99.90;;;;;;5087778;28;20056;-67
2021/05/14 00:03:17;;;;;;;1.42;1.30;;;13.90;99.90;;;;;;5088070;28;20423;-67
2021/05/14 00:05:43;;;;;;;1.02;1.02;;;13.90;99.90;;;;;;5069479;28;20633;-67
2021/05/14 00:08:09;;;;;;;1.55;1.45;;;14.00;99.90;;;;;;5087757;28;20134;-67
2021/05/14 00:10:38;;;;;;;3.60;1.08;;;13.90;99.90;;;;;;5086586;28;20074;-67
2021/05/14 00:13:09;;;;;;;2.83;0.98;;;13.80;99.90;;;;;;5088112;28;20070;-67
2021/05/14 00:15:35;;;;;;;2.33;1.10;;;13.80;99.90;;;;;;5087685;28;20119;-67
2021/05/14 00:18:01;;;;;;;1.13;1.13;;;13.70;99.90;;;;;;5088147;28;20055;-67
2021/05/14 00:20:27;;;;;;;3.10;1.02;;;13.60;99.90;;;;;;5087703;28;20090;-67
2021/05/14 00:22:54;;;;;;;0.98;0.93;;;13.60;99.90;;;;;;5087775;28;20484;-67
2021/05/14 00:25:20;;;;;;;3.30;1.20;;;13.60;99.90;;;;;;5086527;28;20063;-67
2021/05/14 00:27:46;;;;;;;0.93;0.93;;;13.70;99.90;;;;;;5086296;28;20566;-67
2021/05/14 00:30:13;;;;;;;1.20;1.08;;;13.70;99.90;;;;;;5086655;28;20150;-67
2021/05/14 00:32:39;;;;;;;3.08;1.00;;;13.80;99.90;;;;;;5086548;28;20522;-67
2021/05/14 00:35:07;;;;;;;1.13;1.02;;;13.70;99.90;;;;;;5087760;28;20159;-67
2021/05/14 00:37:33;;;;;;;0.73;0.73;;;13.60;99.90;;;;;;5087656;28;20553;-67
2021/05/14 00:40:00;;;;;;;2.03;0.80;;;13.60;99.90;;;;;;5105223;28;20062;-67
2021/05/14 00:42:26;;;;;;;1.85;0.95;;;13.60;99.90;;;;;;5089610;28;20527;-67
2021/05/14 00:44:52;;;;;;;1.38;1.27;;;13.50;99.90;;;;;;5090081;28;20079;-67
2021/05/14 00:47:19;;;;;;;1.08;1.08;;;13.50;99.90;;;;;;5108023;28;20043;-67
2021/05/14 00:49:47;;;;;;;5.22;1.45;;;13.40;99.90;;;;;;5089486;28;20119;-67
2021/05/14 00:52:18;;;;;;;2.22;1.15;;;13.40;99.90;;;;;;5072572;28;20071;-67
2021/05/14 00:54:47;;;;;;;1.42;1.08;;;13.30;99.90;;;;;;5089599;28;20134;-67
2021/05/14 00:57:15;;;;;;;2.55;1.63;;;13.20;99.90;;;;;;5089500;28;20138;-67
2021/05/14 00:59:46;;;;;;;1.88;1.88;;;13.20;99.90;;;;;;5107507;28;20126;-67
2021/05/14 01:02:16;;;;;;;1.77;1.60;;;13.10;99.90;;;;;;5107975;28;20073;-67
2021/05/14 01:04:44;;;;;;;2.28;1.60;;;13.10;99.90;;;;;;5075719;28;20047;-68
2021/05/14 01:07:13;;;;;;;2.30;2.10;;;13.10;99.90;;;;;;5111346;28;20405;-67
2021/05/14 01:09:42;;;;;;;1.27;1.17;;;13.00;99.90;;;;;;5111206;28;20581;-67
2021/05/14 01:12:09;;;;;;;4.53;2.00;;;13.00;99.90;;;;;;5092970;28;20051;-68
2021/05/14 01:14:35;;;;;;;1.60;1.60;;;12.90;99.90;;;;;;5111192;28;20047;-67
2021/05/14 01:17:03;;;;;;;1.75;1.63;;;12.90;99.90;;;;;;5111489;28;20423;-67
2021/05/14 01:19:30;;;;;;;1.92;1.40;;;12.80;99.90;;;;;;5092908;28;20054;-67
2021/05/14 01:21:57;;;;;;;2.47;2.38;;;12.80;99.90;;;;;;5076483;28;20415;-67
2021/05/14 01:24:23;;;;;;;1.50;1.50;;;12.70;99.90;;;;;;5111086;28;20059;-67
2021/05/14 01:26:49;;;;;;;1.75;1.75;;;12.60;99.90;;;;;;5092702;28;20422;-67
2021/05/14 01:29:15;;;;;;;2.80;1.75;;;12.60;99.90;;;;;;5110977;28;20044;-67
2021/05/14 01:31:42;;;;;;;4.10;1.40;;;12.60;99.90;;;;;;5110791;28;20131;-67
2021/05/14 01:34:08;;;;;;;1.92;1.83;;;12.60;99.90;;;;;;5110824;28;20059;-67
2021/05/14 01:36:39;;;;;;;1.45;1.40;;;12.60;99.90;;;;;;5072457;28;20050;-67
2021/05/14 01:39:11;;;;;;;3.25;1.77;;;12.60;99.90;;;;;;5083697;28;20135;-67
2021/05/14 01:41:38;;;;;;;1.55;1.40;;;12.50;99.90;;;;;;5110487;28;20502;-67
2021/05/14 01:44:07;;;;;;;1.42;1.35;;;12.60;99.90;;;;;;5110933;28;20146;-66
2021/05/14 01:46:34;;;;;;;2.35;1.35;;;12.50;99.90;;;;;;5110836;28;20063;-67
2021/05/14 01:49:01;;;;;;;1.75;1.52;;;12.50;99.90;;;;;;5092429;28;20082;-67
2021/05/14 01:51:27;;;;;;;1.73;1.63;;;12.50;99.90;;;;;;5092445;28;20043;-67
2021/05/14 01:53:53;;;;;;;1.50;1.40;;;12.40;99.90;;;;;;5091883;28;20566;-66
2021/05/14 01:56:19;;;;;;;2.28;1.65;;;12.30;99.90;;;;;;5110475;28;20043;-67
2021/05/14 01:58:47;;;;;;;2.88;1.63;;;12.30;99.90;;;;;;5110078;28;20044;-66
2021/05/14 02:01:13;;;;;;;1.73;1.50;;;12.30;99.90;;;;;;5110217;28;20075;-68
2021/05/14 02:03:39;;;;;;;1.67;1.48;;;12.30;99.90;;;;;;5108997;28;20083;-67
2021/05/14 02:06:06;;;;;;;1.27;1.17;;;12.20;99.90;;;;;;5092408;28;20078;-67
2021/05/14 02:08:32;;;;;;;1.30;1.30;;;12.20;99.90;;;;;;5110022;28;20539;-67
2021/05/14 02:10:58;;;;;;;1.40;1.30;;;12.10;99.90;;;;;;5091528;28;20100;-66
2021/05/14 02:13:25;;;;;;;1.25;1.25;;;12.10;99.90;;;;;;5091871;28;20229;-67
2021/05/14 02:15:51;;;;;;;1.35;1.35;;;12.00;99.90;;;;;;5109959;28;20143;-66
2021/05/14 02:18:17;;;;;;;3.00;1.33;;;12.10;99.90;;;;;;5109893;28;20488;-67
2021/05/14 02:20:43;;;;;;;2.13;1.30;;;12.10;99.90;;;;;;5091662;28;20070;-66
2021/05/14 02:23:09;;;;;;;2.47;1.40;;;12.10;99.90;;;;;;5110017;28;20086;-67
2021/05/14 02:25:37;;;;;;;3.80;1.65;;;12.10;99.90;;;;;;5091869;28;20079;-67
2021/05/14 02:28:03;;;;;;;2.25;1.05;;;12.00;99.90;;;;;;5091512;28;20517;-67
2021/05/14 02:30:30;;;;;;;1.23;1.23;;;12.00;99.90;;;;;;5109928;28;20047;-67
2021/05/14 02:32:56;;;;;;;0.95;0.95;;;12.10;99.90;;;;;;5109583;28;20051;-67
2021/05/14 02:35:21;;;;;;;2.30;1.30;;;12.10;99.90;;;;;;5109606;28;20096;-67
2021/05/14 02:37:48;;;;;;;0.80;0.80;;;12.40;99.90;;;;;;5091140;28;20130;-67
2021/05/14 02:40:14;;;;;;;1.25;1.15;;;12.40;99.90;;;;;;5091059;28;20085;-66
2021/05/14 02:42:40;;;;;;;2.15;1.30;;;12.50;99.90;;;;;;5085721;28;20487;-67
2021/05/14 02:45:09;;;;;;;1.65;0.98;;;12.60;99.90;;;;;;5091137;28;20131;-67
2021/05/14 02:47:35;;;;;;;1.00;1.00;;;12.60;99.90;;;;;;5109362;28;20415;-67
2021/05/14 02:50:01;;;;;;;1.30;1.10;;;12.70;99.90;;;;;;5091099;28;20112;-66
2021/05/14 02:52:27;;;;;;;1.48;1.38;;;12.60;99.90;;;;;;5091036;28;20085;-67
2021/05/14 02:54:53;;;;;;;3.03;0.65;;;12.60;99.90;;;;;;5090941;28;20067;-67
2021/05/14 02:57:21;;;;;;;2.22;0.95;;;12.60;99.90;;;;;;5091438;28;20062;-67
2021/05/14 02:59:47;;;;;;;2.95;1.42;;;12.50;99.90;;;;;;5091006;28;20093;-67
2021/05/14 03:02:13;;;;;;;1.45;0.90;;;12.60;99.90;;;;;;5109595;28;20471;-67
2021/05/14 03:04:39;;;;;;;1.05;1.00;;;12.60;99.90;;;;;;5091230;28;20090;-67
2021/05/14 03:07:05;;;;;;;4.13;1.25;;;12.70;99.90;;;;;;5073914;28;20478;-67
2021/05/14 03:09:31;;;;;;;0.98;0.98;;;12.70;99.90;;;;;;5074936;28;20531;-67
2021/05/14 03:11:57;;;;;;;0.85;0.85;;;12.80;99.90;;;;;;5106592;28;20127;-67
2021/05/14 03:14:23;;;;;;;1.67;0.80;;;12.80;99.90;;;;;;5108678;28;20511;-67
2021/05/14 03:16:49;;;;;;;3.08;1.05;;;12.70;99.90;;;;;;5108776;28;20071;-67
2021/05/14 03:19:16;;;;;;;2.45;1.10;;;12.70;99.90;;;;;;5090633;28;20438;-67
2021/05/14 03:21:42;;;;;;;1.00;1.00;;;12.70;99.90;;;;;;5108486;28;20479;-67
2021/05/14 03:24:08;;;;;;;1.75;0.90;;;12.70;99.90;;;;;;5073759;28;20048;-67
2021/05/14 03:26:35;;;;;;;2.00;0.82;;;12.70;99.90;;;;;;5108143;28;20051;-66
2021/05/14 03:29:01;;;;;;;1.80;1.70;;;12.70;99.90;;;;;;5090350;28;20134;-66
2021/05/14 03:31:27;;;;;;;1.23;1.20;;;12.60;99.90;;;;;;5073757;28;20126;-68
2021/05/14 03:33:53;;;;;;;8.40;0.95;;;12.60;99.90;;;;;;5108666;28;20074;-67
2021/05/14 03:36:21;;;;;;;4.10;1.05;;;12.70;99.90;;;;;;5090422;28;20135;-67
2021/05/14 03:38:48;;;;;;;2.75;1.08;;;12.70;99.90;;;;;;5108723;28;20058;-66
2021/05/14 03:43:57;;;;;;;2.53;0.90;;;12.70;99.90;;;;;;5090553;28;20118;-67
2021/05/14 03:46:27;;;;;;;1.02;1.02;;;12.70;99.90;;;;;;5090290;28;20044;-67
2021/05/14 03:48:54;;;;;;;6.43;1.27;;;12.80;99.90;;;;;;5108463;28;20051;-67
2021/05/14 03:51:20;;;;;;;0.73;0.70;;;12.70;99.90;;;;;;5090559;28;20051;-67
2021/05/14 03:53:46;;;;;;;1.25;0.82;;;12.80;99.90;;;;;;5073618;28;20048;-67
2021/05/14 03:56:12;;;;;;;1.10;0.88;;;12.80;99.90;;;;;;5108094;28;20092;-67
2021/05/14 03:58:38;;;;;;;1.92;1.08;;;12.90;99.90;;;;;;5108464;28;20515;-67
2021/05/14 04:01:05;;;;;;;0.90;0.85;;;12.90;99.90;;;;;;5090131;28;20047;-67
2021/05/14 04:03:31;;;;;;;1.42;1.33;;;13.00;99.90;;;;;;5090121;28;20100;-67
2021/05/14 04:05:57;;;;;;;1.70;1.02;;;13.00;99.90;;;;;;5108216;28;20535;-66
2021/05/14 04:08:25;;;;;;;1.10;1.10;;;13.00;99.90;;;;;;5090361;28;20180;-67
2021/05/14 04:11:17;;;;;;;0.80;0.80;;;13.00;99.90;;;;;;5107788;28;20097;-67
2021/05/14 04:16:28;;;;;;;3.08;1.20;;;13.10;99.90;;;;;;5108479;28;20043;-67
2021/05/14 04:18:54;;;;;;;0.85;0.85;;;13.00;99.90;;;;;;5108041;28;20470;-67
2021/05/14 04:21:20;;;;;;;1.48;0.70;;;13.20;99.90;;;;;;5072960;28;20126;-67
2021/05/14 04:23:46;;;;;;;0.55;0.50;;;13.30;99.90;;;;;;5108164;28;20058;-67
2021/05/14 04:26:12;;;;;;;2.65;1.45;;;13.40;99.90;;;;;;5106541;28;20511;-68
2021/05/14 04:28:38;;;;;;;1.38;0.60;;;13.50;99.90;;;;;;5108001;28;20070;-67
2021/05/14 04:31:05;;;;;;;0.65;0.65;;;13.40;99.90;;;;;;5089917;28;20479;-67
2021/05/14 04:33:31;;;;;;;0.68;0.68;;;13.50;99.90;;;;;;5108242;28;20130;-68
2021/05/14 04:35:57;;;;;;;0.52;0.52;;;13.60;99.90;;;;;;5108268;28;20574;-67
2021/05/14 04:38:23;;;;;;;0.77;0.63;;;13.60;99.90;;;;;;5090958;28;20466;-67
2021/05/14 04:40:49;;;;;;;0.95;0.70;;;13.70;99.90;;;;;;5111594;28;20562;-67
2021/05/14 04:43:16;;;;;;;1.23;0.70;;;13.80;99.90;;;;;;5093373;28;20172;-67
2021/05/14 04:45:42;;;;;;;0.57;0.57;;;13.80;99.90;;;;;;5111824;28;20499;-67
2021/05/14 04:48:11;;;;;;;1.73;0.82;;;13.80;99.90;;;;;;5111454;28;20094;-67
2021/05/14 04:50:38;;;;;;;2.13;0.70;;;13.70;99.90;;;;;;5111710;28;20081;-67
2021/05/14 04:53:10;;;;;;;2.20;0.68;;;13.70;99.90;;;;;;5093279;28;20054;-67
2021/05/14 04:55:36;;;;;;;9.27;1.13;;;13.70;99.90;;;;;;5111703;28;20126;-67
2021/05/14 04:58:03;;;;;;;1.58;0.80;;;13.70;99.90;;;;;;5077077;28;20047;-66
2021/05/14 05:00:29;;;;;;;2.58;1.45;;;13.80;99.90;;;;;;5086826;28;20130;-67
2021/05/14 05:02:56;;;;;;;2.63;1.10;;;13.80;99.90;;;;;;5092913;28;20130;-67
2021/05/14 05:05:23;;;;;;;1.35;1.35;;;14.00;99.90;;;;;;5093200;28;20043;-67
2021/05/14 05:07:49;;;;;;;5.75;1.23;;;13.90;99.90;;;;;;5110456;28;20407;-65
2021/05/14 05:10:17;;;;;;;3.60;1.73;;;14.10;99.90;;;;;;5084933;28;20119;-64
2021/05/14 05:12:43;;;;;;;7.43;3.00;;;14.30;99.90;;;;;;5084931;28;20137;-70
2021/05/14 05:15:10;;;;;;;4.78;2.75;;;14.50;99.90;;;;;;5106312;28;20432;-68
2021/05/14 05:17:38;;;;;;;5.95;3.15;;;14.50;99.90;;;;;;5096188;28;20134;-68
2021/05/14 05:20:05;;;;;;;15.25;3.75;;;14.60;99.90;;;;;;5105940;28;20039;-67
2021/05/14 05:22:31;;;;;;;7.55;3.22;;;14.80;99.90;;;;;;5111192;28;20047;-66
2021/05/14 05:24:57;;;;;;;6.82;2.60;;;14.90;99.90;;;;;;5108888;28;20162;-68
2021/05/14 05:27:23;;;;;;;2.33;1.92;;;15.10;99.90;;;;;;5090381;28;20146;-70
2021/05/14 05:29:49;;;;;;;5.45;2.67;;;15.20;99.90;;;;;;5081990;28;20476;-65
2021/05/14 05:32:16;;;;;;;9.65;3.63;;;15.20;99.90;;;;;;5110620;28;20134;-67
2021/05/14 05:34:43;;;;;;;2.88;2.00;;;15.00;99.90;;;;;;5110838;28;20100;-67
2021/05/14 05:37:09;;;;;;;1.88;1.77;;;15.00;99.90;;;;;;5075805;28;20506;-68
2021/05/14 05:39:35;;;;;;;2.33;2.17;;;15.20;99.90;;;;;;5092257;28;20131;-68
2021/05/14 05:42:01;;;;;;;1.90;1.80;;;14.90;99.90;;;;;;5075194;28;20051;-69
2021/05/14 05:44:27;;;;;;;1.73;1.60;;;14.50;99.90;;;;;;5092306;28;20097;-71
2021/05/14 05:46:53;;;;;;;5.50;2.05;;;14.20;99.90;;;;;;5092367;28;20131;-67
2021/05/14 05:49:21;;;;;;;8.38;3.10;;;13.70;99.90;;;;;;5091635;28;20059;-68
2021/05/14 05:51:48;;;;;;;2.72;2.05;;;13.60;99.90;;;;;;5092465;28;20044;-70
2021/05/14 05:54:14;;;;;;;17.23;3.05;;;13.50;99.90;;;;;;5092274;28;20139;-72
2021/05/14 05:56:43;;;;;;;3.67;2.65;;;13.50;99.90;;;;;;5092259;28;20130;-74
2021/05/14 05:59:12;;;;;;;22.33;2.83;;;13.40;99.90;;;;;;5091789;28;20395;-77
2021/05/14 06:01:41;;;;;;;7.63;3.13;;;13.40;99.90;;;;;;5078978;28;20056;-77
2021/05/14 06:04:07;;;;;;;40.60;4.30;;;13.50;99.90;;;;;;5089073;28;20048;-76
2021/05/14 06:06:33;;;;;;;4.95;3.20;;;13.40;99.90;;;;;;5075245;28;20081;-73
2021/05/14 06:08:59;;;;;;;20.88;3.63;;;13.30;99.90;;;;;;5091994;28;20529;-76
2021/05/14 06:11:26;;;;;;;14.30;3.63;;;13.10;99.90;;;;;;5077924;28;20039;-77
2021/05/14 06:13:52;;;;;;;10.60;3.40;;;16.30;99.90;;;;;;5091996;28;20520;-75
2021/05/14 06:16:19;;;;;;;3.80;3.42;;;17.60;99.90;;;;;;5091707;28;20055;-74
2021/05/14 06:18:50;;;;;;;4.90;4.47;;;17.90;99.90;;;;;;5109752;28;20071;-72
2021/05/14 06:21:16;;;;;;;8.05;4.05;;;18.70;99.90;;;;;;5074876;28;20043;-74
2021/05/14 06:23:43;;;;;;;15.88;4.90;;;19.80;99.90;;;;;;5109739;28;20109;-75
2021/05/14 06:26:09;;;;;;;4.80;4.38;;;20.30;99.90;;;;;;5091468;28;20039;-78
2021/05/14 06:28:35;;;;;;;12.73;4.22;;;20.10;99.90;;;;;;5091148;28;20430;-76
2021/05/14 06:31:13;;;;;;;17.42;5.68;;;19.30;99.90;;;;;;5093009;28;20189;-79
2021/05/14 06:33:39;;;;;;;11.10;5.47;;;16.00;99.90;;;;;;5091941;28;20054;-80
2021/05/14 06:36:06;;;;;;;5.53;4.47;;;16.80;99.90;;;;;;5075048;28;20066;-76
2021/05/14 06:38:32;;;;;;;6.00;5.30;;;17.50;99.90;;;;;;5091319;28;20426;-78
2021/05/14 06:41:00;;;;;;;5.45;4.95;;;18.00;99.90;;;;;;5074294;28;20055;-76
2021/05/14 06:46:22;;;;;;;7.22;5.13;;;18.60;99.90;;;;;;5050334;23;20241;-75
2021/05/14 06:48:49;;;;;;;6.25;5.65;;;19.00;99.90;;;;;;4951318;28;20396;-76
2021/05/14 06:51:14;;;;;;;6.40;5.80;;;19.30;99.90;;;;;;4968824;28;20057;-76
2021/05/14 06:53:40;;;;;;;5.85;5.32;;;19.50;99.90;;;;;;4929625;28;20050;-80
2021/05/14 06:56:07;;;;;;;5.32;4.97;;;19.70;99.90;;;;;;4966057;28;20129;-77
2021/05/14 06:58:32;;;;;;;6.68;5.55;;;19.60;99.90;;;;;;4969285;28;20050;-77
2021/05/14 07:00:58;;;;;;;4.90;4.50;;;19.80;99.90;;;;;;4968092;28;20145;-77
2021/05/14 07:03:25;;;;;;;5.00;4.32;;;20.00;99.90;;;;;;4969967;28;20219;-77
2021/05/14 07:05:50;;;;;;;5.60;5.10;;;20.40;99.90;;;;;;4969659;28;20157;-78
2021/05/14 07:08:16;;;;;;;4.45;4.15;;;21.40;99.90;;;;;;4969630;28;20106;-77
2021/05/14 07:10:42;;;;;;;5.60;4.57;;;21.00;99.90;;;;;;4969881;28;20858;-72
2021/05/14 07:13:09;;;;;;;3.83;3.63;;;;;;;;;;4969918;28;20074;-74
2021/05/14 07:15:35;;;;;;;4.72;4.32;;;20.20;99.90;;;;;;4969181;28;20043;-72
2021/05/14 07:18:01;;;;;;;4.60;4.22;;;20.00;99.90;;;;;;4969245;28;20099;-71
2021/05/14 07:20:27;;;;;;;4.05;3.85;;;19.90;99.90;;;;;;4982493;28;20086;-71
2021/05/14 07:22:54;;;;;;;4.60;4.40;;;19.80;99.90;;;;;;4968131;28;20058;-71
2021/05/14 07:25:20;;;;;;;4.95;4.55;;;20.00;99.90;;;;;;4966943;28;20055;-71
2021/05/14 07:27:46;;;;;;;4.40;4.10;;;20.10;99.90;;;;;;4955546;28;20050;-71
2021/05/14 07:30:14;;;;;;;5.82;4.65;;;20.00;99.90;;;;;;4967357;28;20137;-73
2021/05/14 07:32:40;;;;;;;5.22;4.53;;;19.90;99.90;;;;;;4968406;28;20130;-72
2021/05/14 07:35:07;;;;;;;5.30;4.90;;;19.70;99.90;;;;;;4951469;28;20054;-72
2021/05/14 07:37:33;;;;;;;5.40;4.90;;;19.40;99.90;;;;;;4969166;28;20069;-71
2021/05/14 07:39:59;;;;;;;6.40;5.50;;;19.50;99.90;;;;;;4967540;28;20581;-73
2021/05/14 07:42:25;;;;;;;4.95;4.65;;;19.30;99.90;;;;;;4969172;28;20125;-71
2021/05/14 07:44:51;;;;;;;4.93;4.63;;;19.50;99.90;;;;;;4968033;28;20054;-72
2021/05/14 07:47:18;;;;;;;5.50;5.05;;;19.80;99.90;;;;;;4967292;28;20137;-71
2021/05/14 07:49:44;;;;;;;6.22;5.60;;;19.90;99.90;;;;;;4967765;28;20051;-70
2021/05/14 07:52:10;;;;;;;5.43;5.03;;;20.60;99.90;;;;;;4967732;28;20082;-71
2021/05/14 07:54:36;;;;;;;5.88;5.38;;;21.00;99.90;;;;;;4961781;28;20078;-69
2021/05/14 07:57:02;;;;;;;5.95;5.55;;;21.20;99.90;;;;;;4967867;28;20471;-71
2021/05/14 07:59:28;;;;;;;5.38;5.05;;;21.50;99.90;;;;;;4968597;28;20051;-72
2021/05/14 08:01:55;;;;;;;5.35;5.03;;;21.60;99.90;;;;;;4968544;28;20059;-71
2021/05/14 08:04:21;;;;;;;4.68;4.47;;;21.80;99.90;;;;;;4968866;28;20082;-71
2021/05/14 08:06:47;;;;;;;4.15;3.95;;;22.00;99.90;;;;;;4983710;28;20057;-72
2021/05/14 08:09:19;;;;;;;4.35;4.10;;;22.30;99.90;;;;;;4969002;28;20134;-72
2021/05/14 08:11:45;;;;;;;4.45;4.13;;;22.30;99.90;;;;;;4967651;28;20125;-71
2021/05/14 08:14:12;;;;;;;5.47;5.13;;;22.20;99.90;;;;;;4971297;28;20154;-72
2021/05/14 08:16:38;;;;;;;4.53;4.13;;;22.10;99.90;;;;;;4955419;28;20113;-74
2021/05/14 08:19:04;;;;;;;3.92;3.72;;;21.80;99.90;;;;;;4972688;28;20578;-75
2021/05/14 08:21:30;;;;;;;8.48;4.38;;;21.70;99.90;;;;;;4972441;28;20125;-74
2021/05/14 08:23:56;;;;;;;5.20;4.72;;;21.40;99.90;;;;;;4971869;28;20480;-69
2021/05/14 08:26:22;;;;;;;6.18;5.78;;;21.50;99.90;;;;;;4969843;28;20133;-70
2021/05/14 08:28:47;;;;;;;7.65;6.18;;;21.50;99.90;;;;;;4972487;28;20059;-71
2021/05/14 08:31:14;;;;;;;7.60;6.93;;;21.40;99.90;;;;;;4971814;28;20644;-70
2021/05/14 08:33:39;;;;;;;8.82;7.70;;;21.30;99.90;;;;;;4972161;28;20483;-70
2021/05/14 08:36:06;;;;;;;10.50;8.35;;;20.90;99.90;;;;;;4972188;28;20058;-70
2021/05/14 08:38:33;;;;;;;9.50;8.60;;;21.20;99.90;;;;;;4972551;28;20086;-70
2021/05/14 08:41:07;;;;;;;9.27;8.45;;;21.80;99.90;;;;;;4943054;28;20047;-69
2021/05/14 08:43:34;;;;;;;8.95;8.15;;;22.30;99.90;;;;;;4972132;28;20133;-69
2021/05/14 08:46:03;;;;;;;8.00;7.40;;;22.50;99.90;;;;;;4970244;28;20162;-68
2021/05/14 08:48:38;;;;;;;8.00;7.32;;;22.80;99.90;;;;;;4971830;28;20047;-68
2021/05/14 08:51:06;;;;;;;8.90;8.05;;;23.10;99.90;;;;;;4972256;28;20484;-69
2021/05/14 08:53:32;;;;;;;7.90;7.18;;;23.30;99.90;;;;;;4964649;28;20490;-70
2021/05/14 08:55:59;;;;;;;8.45;7.60;;;23.30;99.90;;;;;;4969325;28;20078;-70
2021/05/14 08:58:27;;;;;;;8.63;7.85;;;23.10;99.90;;;;;;4954765;28;20133;-70
2021/05/14 09:00:53;;;;;;;7.93;7.07;;;23.00;99.90;;;;;;4971394;28;20160;-67
2021/05/14 09:03:20;;;;;;;6.82;6.30;;;23.00;99.90;;;;;;4986486;28;20050;-67
2021/05/14 09:05:48;;;;;;;5.20;4.80;;;23.20;99.90;;;;;;4971572;28;20472;-67
2021/05/14 09:08:31;;;;;;;4.45;4.15;;;23.20;99.90;;;;;;4971590;28;20097;-69
2021/05/14 09:10:58;;;;;;;2.42;2.33;;;23.10;99.90;;;;;;4971593;28;20494;-66
2021/05/14 09:13:37;;;;;;;2.53;1.52;;;22.80;99.90;;;;;;4971929;28;20050;-65
2021/05/14 09:16:05;;;;;;;1.40;1.30;;;22.30;99.90;;;;;;4970049;28;20082;-65
2021/05/14 09:18:30;;;;;;;1.00;1.00;;;22.60;99.90;;;;;;4971469;28;20089;-65
2021/05/14 09:20:59;;;;;;;0.60;0.60;;;23.30;99.90;;;;;;4971739;28;20058;-64
2021/05/14 09:23:36;;;;;;;0.65;0.65;;;23.30;99.90;;;;;;4969509;28;20158;-65
2021/05/14 09:26:08;;;;;;;0.90;0.90;;;23.10;99.90;;;;;;4971335;28;20121;-66
2021/05/14 09:28:47;;;;;;;3.03;1.10;;;23.00;99.90;;;;;;4969893;28;20142;-67
2021/05/14 09:31:22;;;;;;;1.15;1.15;;;22.70;99.90;;;;;;4971554;28;20097;-66
2021/05/14 09:33:55;;;;;;;3.20;1.33;;;22.40;99.90;;;;;;4970244;28;20102;-67
2021/05/14 09:36:23;;;;;;;1.25;1.15;;;22.30;99.90;;;;;;4971392;28;20051;-68
2021/05/14 09:39:03;;;;;;;2.05;1.55;;;22.20;99.90;;;;;;4970981;28;20138;-68
2021/05/14 09:41:43;;;;;;;1.38;1.17;;;22.10;99.90;;;;;;4971139;28;20050;-68
2021/05/14 09:44:10;;;;;;;1.60;1.50;;;22.30;99.90;;;;;;4969658;28;20407;-69
2021/05/14 09:46:40;;;;;;;1.80;1.70;;;22.60;99.90;;;;;;4983105;28;20145;-68
2021/05/14 09:49:17;;;;;;;1.40;1.40;;;22.40;99.90;;;;;;4953648;28;20499;-68
2021/05/14 09:52:05;;;;;;;1.42;1.33;;;22.40;99.90;;;;;;4971254;28;20161;-69
2021/05/14 09:54:41;;;;;;;2.15;1.98;;;22.30;99.90;;;;;;4970456;28;20051;-69
2021/05/14 09:59:55;;;;;;;1.45;1.40;;;22.40;99.90;;;;;;4968980;28;20113;-65
2021/05/14 10:02:27;;;;;;;1.35;1.25;;;22.10;99.90;;;;;;4968204;28;20104;-67
2021/05/14 10:04:54;;;;;;;1.38;1.27;;;22.10;99.90;;;;;;4970612;28;20050;-68
2021/05/14 10:07:23;;;;;;;2.30;0.90;;;22.30;99.90;;;;;;4970341;28;20097;-68
2021/05/14 10:09:53;;;;;;;2.00;1.40;;;22.10;99.90;;;;;;4970614;28;20182;-68
2021/05/14 10:12:22;;;;;;;1.60;1.08;;;22.00;99.90;;;;;;4969238;28;20050;-70
2021/05/14 10:14:48;;;;;;;1.10;1.10;;;22.00;99.90;;;;;;4969962;28;20485;-70
2021/05/14 10:17:15;;;;;;;1.30;1.30;;;21.90;99.90;;;;;;4950554;28;20452;-68
2021/05/14 10:19:43;;;;;;;3.13;1.17;;;21.70;99.90;;;;;;4962670;28;20215;-70
2021/05/14 10:22:10;;;;;;;1.40;1.40;;;21.70;99.90;;;;;;4950708;28;20053;-70
2021/05/14 10:24:39;;;;;;;1.95;1.80;;;21.50;99.90;;;;;;4961904;28;20082;-70
2021/05/14 10:27:21;;;;;;;2.83;1.70;;;21.50;99.90;;;;;;4952673;28;20051;-69
2021/05/14 10:29:56;;;;;;;2.58;1.50;;;21.50;99.90;;;;;;4968753;28;20857;-69
2021/05/14 10:32:44;;;;;;;1.30;1.30;;;21.60;99.90;;;;;;4970532;28;20053;-70
2021/05/14 10:35:13;;;;;;;1.27;1.27;;;21.50;99.90;;;;;;4970090;28;20604;-69
2021/05/14 10:37:53;;;;;;;1.65;1.55;;;21.40;99.90;;;;;;4969114;28;20560;-70
2021/05/14 10:40:32;;;;;;;1.58;1.58;;;21.30;99.90;;;;;;4969429;28;20162;-71
2021/05/14 10:43:01;;;;;;;1.95;1.85;;;21.40;99.90;;;;;;4968708;28;20050;-70
2021/05/14 10:45:35;;;;;;;1.70;1.60;;;21.60;99.90;;;;;;4969977;28;20142;-70
2021/05/14 10:48:01;;;;;;;1.52;1.42;;;21.50;99.90;;;;;;4967395;28;20142;-69
2021/05/14 10:50:36;;;;;;;1.52;1.45;;;21.50;99.90;;;;;;4970802;28;20046;-68
2021/05/14 10:53:19;;;;;;;1.85;0.95;;;21.40;99.90;;;;;;4956936;28;20078;-69
2021/05/14 10:55:48;;;;;;;1.10;1.10;;;21.40;99.90;;;;;;4967931;28;20128;-68
2021/05/14 10:58:50;;;;;;;1.17;1.17;;;21.40;99.90;;;;;;4966403;28;20142;-69
2021/05/14 11:01:34;;;;;;;7.90;2.03;;;21.30;99.90;;;;;;4969261;28;20553;-66
2021/05/14 11:04:35;;;;;;;2.47;2.35;;;21.30;99.90;;;;;;4969407;28;20047;-66
2021/05/14 11:07:01;;;;;;;2.55;1.83;;;21.40;99.90;;;;;;4966592;28;20069;-66
2021/05/14 11:09:27;;;;;;;2.47;2.28;;;21.50;99.90;;;;;;4969102;28;20204;-66
2021/05/14 11:12:13;;;;;;;2.05;1.98;;;21.50;99.90;;;;;;4969333;28;20525;-68
2021/05/14 11:14:48;;;;;;;2.10;2.10;;;21.50;99.90;;;;;;4968265;28;20126;-67
2021/05/14 11:17:16;;;;;;;2.13;2.13;;;21.60;99.90;;;;;;4968007;28;20506;-68
2021/05/14 11:19:49;;;;;;;2.30;2.17;;;22.00;99.90;;;;;;4968272;28;20175;-68
2021/05/14 11:22:18;;;;;;;2.58;2.47;;;22.00;99.90;;;;;;4967899;28;20418;-68
2021/05/14 11:24:51;;;;;;;1.73;1.67;;;22.30;99.90;;;;;;4968785;28;20050;-66
2021/05/14 11:27:17;;;;;;;2.15;1.98;;;22.30;99.90;;;;;;4969405;28;20058;-66
2021/05/14 11:29:53;;;;;;;5.03;2.25;;;22.30;99.90;;;;;;4969069;28;20517;-67
2021/05/14 11:32:34;;;;;;;2.42;2.33;;;22.40;99.90;;;;;;4967834;28;20127;-67
2021/05/14 11:35:23;;;;;;;2.25;2.15;;;22.60;99.90;;;;;;4963840;28;20054;-77
2021/05/14 11:37:54;;;;;;;4.13;2.05;;;23.00;99.90;;;;;;4967275;28;20086;-78
2021/05/14 11:40:40;;;;;;;1.38;1.08;;;22.90;99.90;;;;;;4968723;28;20077;-77
2021/05/14 11:43:11;;;;;;;5.38;1.58;;;23.00;99.90;;;;;;4968792;28;20547;-77
2021/05/14 11:45:45;;;;;;;3.05;1.83;;;23.00;99.90;;;;;;4968924;28;20680;-80
2021/05/14 11:48:18;;;;;;;2.00;1.90;;;23.00;99.90;;;;;;4956262;28;20097;-80
2021/05/14 11:50:51;;;;;;;1.63;1.60;;;22.90;99.90;;;;;;4968764;28;20051;-75
2021/05/14 11:53:18;;;;;;;1.83;1.73;;;23.00;99.90;;;;;;4981649;28;20122;-75
2021/05/14 11:55:46;;;;;;;2.58;1.98;;;23.00;99.90;;;;;;4968392;28;20054;-76
2021/05/14 11:58:13;;;;;;;2.25;2.15;;;23.00;99.90;;;;;;4969041;28;20047;-74
2021/05/14 12:00:43;;;;;;;8.52;2.40;;;23.10;99.90;;;;;;4967688;28;20174;-77
2021/05/14 12:03:11;;;;;;;1.75;1.75;;;23.10;99.90;;;;;;4968141;28;20082;-77
2021/05/14 12:05:38;;;;;;;4.13;1.60;;;23.20;99.90;;;;;;4969178;28;20462;-75
2021/05/14 12:08:26;;;;;;;1.88;1.85;;;23.30;99.90;;;;;;4951212;28;20047;-76
2021/05/14 12:10:57;;;;;;;2.60;2.50;;;23.50;99.90;;;;;;4967485;28;20086;-76
2021/05/14 12:13:28;;;;;;;3.67;3.47;;;23.60;99.90;;;;;;4969309;28;20259;-73
2021/05/14 12:15:57;;;;;;;5.15;3.50;;;23.70;99.90;;;;;;4969380;28;20474;-73
2021/05/14 12:18:24;;;;;;;5.10;4.65;;;23.80;99.90;;;;;;4967248;28;20047;-80
2021/05/14 12:20:52;;;;;;;3.90;3.70;;;23.80;99.90;;;;;;4983782;28;20146;-81
2021/05/14 12:23:22;;;;;;;4.82;4.40;;;23.80;99.90;;;;;;4964800;28;20141;-70
2021/05/14 12:25:50;;;;;;;5.82;5.32;;;24.10;99.90;;;;;;4967809;28;20054;-71
2021/05/14 12:28:43;;;;;;;5.78;5.35;;;23.90;99.90;;;;;;4967638;28;20209;-71
2021/05/14 12:31:11;;;;;;;6.00;5.53;;;23.80;99.90;;;;;;4968853;28;20535;-71
2021/05/14 12:34:00;;;;;;;5.97;5.47;;;23.80;99.90;;;;;;4968959;28;20482;-71
2021/05/14 12:36:34;;;;;;;12.77;4.57;;;23.90;99.90;;;;;;4968950;28;20210;-71
2021/05/14 12:39:12;;;;;;;4.80;4.50;;;23.60;99.90;;;;;;4968746;28;20138;-71
2021/05/14 12:41:41;;;;;;;5.90;4.75;;;23.40;99.90;;;;;;4961040;28;20051;-71
2021/05/14 12:44:29;;;;;;;5.75;5.25;;;23.40;99.90;;;;;;4962742;28;20134;-74
2021/05/14 12:47:23;;;;;;;7.03;6.45;;;23.20;99.90;;;;;;4968737;28;20541;-73
2021/05/14 12:50:10;;;;;;;5.60;5.20;;;23.50;99.90;;;;;;4967430;28;20591;-72
2021/05/14 12:52:37;;;;;;;6.10;5.57;;;23.50;99.90;;;;;;4968367;28;20129;-70
2021/05/14 12:55:13;;;;;;;5.18;4.78;;;23.30;99.90;;;;;;4958117;28;20581;-74
2021/05/14 12:57:40;;;;;;;5.40;5.07;;;23.30;99.90;;;;;;4958602;28;20054;-73
2021/05/14 13:00:20;;;;;;;6.18;5.68;;;23.40;99.90;;;;;;4961897;28;20054;-74
2021/05/14 13:03:04;;;;;;;6.13;5.57;;;24.20;99.90;;;;;;4958735;28;20059;-74
2021/05/14 13:05:45;;;;;;;5.78;5.30;;;24.70;99.90;;;;;;4971119;28;20129;-74